sensor_id;sensor_type;location;lat;lon;timestamp;pressure;altitude;pressure_sealevel;temperature;humidity
13593;BME280;6867;50.998;4.250;2023-04-09T00:00:02;102188.41;;;8.33;73.37
13593;BME280;6867;50.998;4.250;2023-04-09T00:02:29;102184.91;;;8.32;73.51
13593;BME280;6867;50.998;4.250;2023-04-09T00:04:57;102181.59;;;8.38;73.31
13593;BME280;6867;50.998;4.250;2023-04-09T00:07:26;102186.41;;;8.35;73.82
13593;BME280;6867;50.998;4.250;2023-04-09T00:09:53;102180.53;;;8.31;73.74
13593;BME280;6867;50.998;4.250;2023-04-09T00:12:20;102186.56;;;8.33;73.04
13593;BME280;6867;50.998;4.250;2023-04-09T00:14:46;102183.06;;;8.33;73.77
13593;BME280;6867;50.998;4.250;2023-04-09T00:17:13;102182.84;;;8.26;74.02
13593;BME280;6867;50.998;4.250;2023-04-09T00:19:40;102175.13;;;8.23;73.31
13593;BME280;6867;50.998;4.250;2023-04-09T00:22:08;102179.31;;;8.26;73.90
13593;BME280;6867;50.998;4.250;2023-04-09T00:24:35;102181.16;;;8.25;74.29
13593;BME280;6867;50.998;4.250;2023-04-09T00:27:01;102172.44;;;8.23;73.76
13593;BME280;6867;50.998;4.250;2023-04-09T00:29:28;102170.78;;;8.22;73.73
13593;BME280;6867;50.998;4.250;2023-04-09T00:31:55;102173.09;;;8.17;74.07
13593;BME280;6867;50.998;4.250;2023-04-09T00:34:22;102177.59;;;8.16;74.01
13593;BME280;6867;50.998;4.250;2023-04-09T00:36:49;102164.00;;;8.10;73.50
13593;BME280;6867;50.998;4.250;2023-04-09T00:39:17;102163.47;;;8.06;73.85
13593;BME280;6867;50.998;4.250;2023-04-09T00:41:44;102160.78;;;8.06;73.62
13593;BME280;6867;50.998;4.250;2023-04-09T00:44:10;102156.75;;;8.02;73.76
13593;BME280;6867;50.998;4.250;2023-04-09T00:46:37;102158.06;;;7.98;74.13
13593;BME280;6867;50.998;4.250;2023-04-09T00:49:04;102162.56;;;7.97;73.63
13593;BME280;6867;50.998;4.250;2023-04-09T00:51:31;102157.09;;;7.99;73.67
13593;BME280;6867;50.998;4.250;2023-04-09T00:53:58;102157.22;;;7.97;73.65
13593;BME280;6867;50.998;4.250;2023-04-09T00:56:27;102157.75;;;8.01;74.07
13593;BME280;6867;50.998;4.250;2023-04-09T00:58:55;102157.91;;;7.99;74.18
13593;BME280;6867;50.998;4.250;2023-04-09T01:01:21;102164.66;;;8.04;74.57
13593;BME280;6867;50.998;4.250;2023-04-09T01:03:48;102168.31;;;8.03;73.74
13593;BME280;6867;50.998;4.250;2023-04-09T01:06:23;102167.97;;;8.06;74.25
13593;BME280;6867;50.998;4.250;2023-04-09T01:08:58;102153.94;;;8.04;74.36
13593;BME280;6867;50.998;4.250;2023-04-09T01:11:35;102154.06;;;8.02;74.50
13593;BME280;6867;50.998;4.250;2023-04-09T01:14:07;102153.25;;;8.02;74.17
13593;BME280;6867;50.998;4.250;2023-04-09T01:16:41;102161.13;;;8.03;73.95
13593;BME280;6867;50.998;4.250;2023-04-09T01:19:20;102151.09;;;8.05;74.03
13593;BME280;6867;50.998;4.250;2023-04-09T01:21:49;102159.13;;;8.05;73.85
13593;BME280;6867;50.998;4.250;2023-04-09T01:24:27;102157.28;;;8.06;74.24
13593;BME280;6867;50.998;4.250;2023-04-09T01:27:05;102161.97;;;8.04;74.55
13593;BME280;6867;50.998;4.250;2023-04-09T01:29:34;102163.41;;;7.98;74.07
13593;BME280;6867;50.998;4.250;2023-04-09T01:32:04;102146.94;;;7.85;73.83
13593;BME280;6867;50.998;4.250;2023-04-09T01:34:33;102159.47;;;7.84;73.85
13593;BME280;6867;50.998;4.250;2023-04-09T01:37:01;102159.47;;;7.84;74.08
13593;BME280;6867;50.998;4.250;2023-04-09T01:39:29;102156.97;;;7.83;73.93
13593;BME280;6867;50.998;4.250;2023-04-09T01:41:56;102152.75;;;7.80;74.09
13593;BME280;6867;50.998;4.250;2023-04-09T01:44:23;102152.44;;;7.83;73.92
13593;BME280;6867;50.998;4.250;2023-04-09T01:46:53;102153.81;;;7.87;74.07
13593;BME280;6867;50.998;4.250;2023-04-09T01:49:21;102150.84;;;7.90;74.48
13593;BME280;6867;50.998;4.250;2023-04-09T01:51:47;102161.75;;;7.97;74.19
13593;BME280;6867;50.998;4.250;2023-04-09T01:54:15;102164.09;;;8.00;74.87
13593;BME280;6867;50.998;4.250;2023-04-09T01:56:42;102156.38;;;7.97;74.58
13593;BME280;6867;50.998;4.250;2023-04-09T01:59:09;102153.34;;;7.92;74.50
13593;BME280;6867;50.998;4.250;2023-04-09T02:01:39;102145.16;;;7.93;74.25
13593;BME280;6867;50.998;4.250;2023-04-09T02:04:15;102151.81;;;7.89;74.16
13593;BME280;6867;50.998;4.250;2023-04-09T02:06:47;102147.63;;;7.87;74.16
13593;BME280;6867;50.998;4.250;2023-04-09T02:09:19;102143.91;;;7.80;74.13
13593;BME280;6867;50.998;4.250;2023-04-09T02:11:47;102148.72;;;7.76;74.16
13593;BME280;6867;50.998;4.250;2023-04-09T02:14:15;102146.19;;;7.74;74.33
13593;BME280;6867;50.998;4.250;2023-04-09T02:16:45;102147.41;;;7.80;74.27
13593;BME280;6867;50.998;4.250;2023-04-09T02:19:14;102143.72;;;7.81;74.28
13593;BME280;6867;50.998;4.250;2023-04-09T02:21:41;102136.03;;;7.78;74.26
13593;BME280;6867;50.998;4.250;2023-04-09T02:24:08;102134.28;;;7.69;74.44
13593;BME280;6867;50.998;4.250;2023-04-09T02:26:35;102130.84;;;7.59;74.11
13593;BME280;6867;50.998;4.250;2023-04-09T02:29:02;102124.78;;;7.48;73.99
13593;BME280;6867;50.998;4.250;2023-04-09T02:31:28;102132.56;;;7.42;73.87
13593;BME280;6867;50.998;4.250;2023-04-09T02:33:55;102129.50;;;7.37;74.07
13593;BME280;6867;50.998;4.250;2023-04-09T02:36:23;102125.84;;;7.38;74.21
13593;BME280;6867;50.998;4.250;2023-04-09T02:38:50;102135.69;;;7.37;74.40
13593;BME280;6867;50.998;4.250;2023-04-09T02:41:16;102128.81;;;7.35;74.10
13593;BME280;6867;50.998;4.250;2023-04-09T02:43:43;102133.47;;;7.33;74.26
13593;BME280;6867;50.998;4.250;2023-04-09T02:46:10;102126.06;;;7.27;74.09
13593;BME280;6867;50.998;4.250;2023-04-09T02:48:37;102116.53;;;7.24;73.86
13593;BME280;6867;50.998;4.250;2023-04-09T02:51:04;102123.72;;;7.23;74.28
13593;BME280;6867;50.998;4.250;2023-04-09T02:53:32;102121.53;;;7.27;74.16
13593;BME280;6867;50.998;4.250;2023-04-09T02:55:59;102116.53;;;7.24;74.14
13593;BME280;6867;50.998;4.250;2023-04-09T02:58:25;102110.78;;;7.19;74.05
13593;BME280;6867;50.998;4.250;2023-04-09T03:00:52;102115.16;;;7.20;74.02
13593;BME280;6867;50.998;4.250;2023-04-09T03:03:19;102108.72;;;7.13;74.11
13593;BME280;6867;50.998;4.250;2023-04-09T03:05:45;102109.03;;;7.10;74.22
13593;BME280;6867;50.998;4.250;2023-04-09T03:08:12;102110.19;;;7.07;74.21
13593;BME280;6867;50.998;4.250;2023-04-09T03:10:40;102111.16;;;7.06;74.54
13593;BME280;6867;50.998;4.250;2023-04-09T03:13:07;102102.94;;;6.99;74.25
13593;BME280;6867;50.998;4.250;2023-04-09T03:15:34;102108.41;;;6.98;74.37
13593;BME280;6867;50.998;4.250;2023-04-09T03:18:00;102094.00;;;6.91;74.24
13593;BME280;6867;50.998;4.250;2023-04-09T03:20:27;102095.81;;;6.90;74.14
13593;BME280;6867;50.998;4.250;2023-04-09T03:22:54;102094.44;;;6.86;74.11
13593;BME280;6867;50.998;4.250;2023-04-09T03:25:20;102099.63;;;6.88;74.12
13593;BME280;6867;50.998;4.250;2023-04-09T03:27:49;102106.81;;;6.87;74.01
13593;BME280;6867;50.998;4.250;2023-04-09T03:30:15;102098.25;;;6.84;74.25
13593;BME280;6867;50.998;4.250;2023-04-09T03:32:42;102097.72;;;6.80;74.17
13593;BME280;6867;50.998;4.250;2023-04-09T03:35:08;102093.81;;;6.74;74.56
13593;BME280;6867;50.998;4.250;2023-04-09T03:37:35;102087.94;;;6.71;74.32
13593;BME280;6867;50.998;4.250;2023-04-09T03:40:02;102096.94;;;6.70;74.46
13593;BME280;6867;50.998;4.250;2023-04-09T03:42:29;102089.06;;;6.68;74.61
13593;BME280;6867;50.998;4.250;2023-04-09T03:44:57;102086.56;;;6.67;74.75
13593;BME280;6867;50.998;4.250;2023-04-09T03:47:24;102085.88;;;6.65;74.75
13593;BME280;6867;50.998;4.250;2023-04-09T03:49:50;102087.84;;;6.63;74.44
13593;BME280;6867;50.998;4.250;2023-04-09T03:52:17;102081.81;;;6.61;74.59
13593;BME280;6867;50.998;4.250;2023-04-09T03:54:44;102077.44;;;6.60;74.55
13593;BME280;6867;50.998;4.250;2023-04-09T03:57:11;102071.56;;;6.56;74.60
13593;BME280;6867;50.998;4.250;2023-04-09T03:59:37;102063.88;;;6.53;74.45
13593;BME280;6867;50.998;4.250;2023-04-09T04:02:05;102072.72;;;6.54;74.51
13593;BME280;6867;50.998;4.250;2023-04-09T04:04:32;102080.72;;;6.54;74.62
13593;BME280;6867;50.998;4.250;2023-04-09T04:06:59;102080.72;;;6.54;74.94
13593;BME280;6867;50.998;4.250;2023-04-09T04:09:25;102082.56;;;6.53;74.69
13593;BME280;6867;50.998;4.250;2023-04-09T04:11:52;102075.56;;;6.52;74.98
13593;BME280;6867;50.998;4.250;2023-04-09T04:14:19;102072.00;;;6.52;74.48
13593;BME280;6867;50.998;4.250;2023-04-09T04:16:46;102073.00;;;6.51;74.51
13593;BME280;6867;50.998;4.250;2023-04-09T04:19:14;102072.88;;;6.52;74.34
13593;BME280;6867;50.998;4.250;2023-04-09T04:21:40;102069.50;;;6.50;74.91
13593;BME280;6867;50.998;4.250;2023-04-09T04:24:07;102067.53;;;6.52;74.88
13593;BME280;6867;50.998;4.250;2023-04-09T04:26:34;102065.84;;;6.51;74.86
13593;BME280;6867;50.998;4.250;2023-04-09T04:29:00;102069.88;;;6.55;74.70
13593;BME280;6867;50.998;4.250;2023-04-09T04:31:27;102072.88;;;6.52;74.69
13593;BME280;6867;50.998;4.250;2023-04-09T04:33:54;102077.22;;;6.53;75.07
13593;BME280;6867;50.998;4.250;2023-04-09T04:36:22;102077.91;;;6.55;75.03
13593;BME280;6867;50.998;4.250;2023-04-09T04:38:48;102078.75;;;6.56;74.85
13593;BME280;6867;50.998;4.250;2023-04-09T04:41:15;102087.47;;;6.58;75.62
13593;BME280;6867;50.998;4.250;2023-04-09T04:43:42;102090.91;;;6.68;75.35
13593;BME280;6867;50.998;4.250;2023-04-09T04:46:09;102084.25;;;6.72;75.17
13593;BME280;6867;50.998;4.250;2023-04-09T04:48:35;102077.00;;;6.64;75.13
13593;BME280;6867;50.998;4.250;2023-04-09T04:51:02;102086.28;;;6.60;74.75
13593;BME280;6867;50.998;4.250;2023-04-09T04:53:30;102084.06;;;6.56;75.29
13593;BME280;6867;50.998;4.250;2023-04-09T04:55:57;102092.53;;;6.51;75.06
13593;BME280;6867;50.998;4.250;2023-04-09T04:58:24;102087.81;;;6.45;75.08
13593;BME280;6867;50.998;4.250;2023-04-09T05:00:50;102092.44;;;6.43;75.34
13593;BME280;6867;50.998;4.250;2023-04-09T05:03:17;102094.56;;;6.39;75.36
13593;BME280;6867;50.998;4.250;2023-04-09T05:05:44;102099.91;;;6.39;75.60
13593;BME280;6867;50.998;4.250;2023-04-09T05:08:11;102095.09;;;6.43;75.61
13593;BME280;6867;50.998;4.250;2023-04-09T05:10:41;102107.03;;;6.48;75.46
13593;BME280;6867;50.998;4.250;2023-04-09T05:13:08;102106.59;;;6.53;75.82
13593;BME280;6867;50.998;4.250;2023-04-09T05:15:37;102107.53;;;6.62;75.60
13593;BME280;6867;50.998;4.250;2023-04-09T05:18:03;102113.25;;;6.67;76.02
13593;BME280;6867;50.998;4.250;2023-04-09T05:20:31;102109.53;;;6.78;76.15
13593;BME280;6867;50.998;4.250;2023-04-09T05:22:57;102115.66;;;6.88;76.00
13593;BME280;6867;50.998;4.250;2023-04-09T05:25:24;102110.25;;;6.97;76.00
13593;BME280;6867;50.998;4.250;2023-04-09T05:27:52;102111.16;;;7.06;76.17
13593;BME280;6867;50.998;4.250;2023-04-09T05:30:19;102116.91;;;7.11;76.63
13593;BME280;6867;50.998;4.250;2023-04-09T05:32:46;102122.00;;;7.22;76.42
13593;BME280;6867;50.998;4.250;2023-04-09T05:35:13;102127.50;;;7.39;76.41
13593;BME280;6867;50.998;4.250;2023-04-09T05:37:39;102130.63;;;7.52;76.35
13593;BME280;6867;50.998;4.250;2023-04-09T05:40:07;102135.28;;;7.68;76.62
13593;BME280;6867;50.998;4.250;2023-04-09T05:42:34;102137.88;;;7.78;76.72
13593;BME280;6867;50.998;4.250;2023-04-09T05:45:02;102135.75;;;7.89;76.78
13593;BME280;6867;50.998;4.250;2023-04-09T05:47:29;102130.47;;;7.97;76.19
13593;BME280;6867;50.998;4.250;2023-04-09T05:49:56;102137.09;;;8.11;76.71
13593;BME280;6867;50.998;4.250;2023-04-09T05:52:23;102133.59;;;8.19;76.64
13593;BME280;6867;50.998;4.250;2023-04-09T05:54:49;102129.59;;;8.23;76.21
13593;BME280;6867;50.998;4.250;2023-04-09T05:57:17;102131.84;;;8.36;76.05
13593;BME280;6867;50.998;4.250;2023-04-09T05:59:43;102134.47;;;8.45;75.66
13593;BME280;6867;50.998;4.250;2023-04-09T06:02:11;102134.84;;;8.59;76.13
13593;BME280;6867;50.998;4.250;2023-04-09T06:04:38;102136.38;;;8.61;76.44
13593;BME280;6867;50.998;4.250;2023-04-09T06:07:05;102146.78;;;8.72;75.72
13593;BME280;6867;50.998;4.250;2023-04-09T06:09:31;102146.50;;;8.84;76.24
13593;BME280;6867;50.998;4.250;2023-04-09T06:11:58;102156.22;;;8.93;76.14
13593;BME280;6867;50.998;4.250;2023-04-09T06:14:25;102147.88;;;9.04;75.98
13593;BME280;6867;50.998;4.250;2023-04-09T06:16:51;102155.25;;;9.10;75.76
13593;BME280;6867;50.998;4.250;2023-04-09T06:19:20;102149.44;;;9.23;75.32
13593;BME280;6867;50.998;4.250;2023-04-09T06:21:47;102146.41;;;9.26;75.93
13593;BME280;6867;50.998;4.250;2023-04-09T06:24:13;102150.47;;;9.38;76.22
13593;BME280;6867;50.998;4.250;2023-04-09T06:26:40;102155.16;;;9.53;76.17
13593;BME280;6867;50.998;4.250;2023-04-09T06:29:07;102165.22;;;9.59;75.84
13593;BME280;6867;50.998;4.250;2023-04-09T06:31:33;102173.09;;;9.68;76.38
13593;BME280;6867;50.998;4.250;2023-04-09T06:34:00;102170.09;;;9.80;76.18
13593;BME280;6867;50.998;4.250;2023-04-09T06:36:28;102172.25;;;10.01;76.44
13593;BME280;6867;50.998;4.250;2023-04-09T06:38:55;102172.91;;;10.11;76.08
13593;BME280;6867;50.998;4.250;2023-04-09T06:41:23;102163.00;;;10.28;75.97
13593;BME280;6867;50.998;4.250;2023-04-09T06:43:50;102164.00;;;10.35;74.96
13593;BME280;6867;50.998;4.250;2023-04-09T06:46:17;102166.47;;;10.44;75.68
13593;BME280;6867;50.998;4.250;2023-04-09T06:48:45;102166.88;;;10.72;75.42
13593;BME280;6867;50.998;4.250;2023-04-09T06:51:12;102162.28;;;10.89;74.90
13593;BME280;6867;50.998;4.250;2023-04-09T06:53:40;102151.81;;;10.94;74.69
13593;BME280;6867;50.998;4.250;2023-04-09T06:56:07;102151.13;;;11.01;74.78
13593;BME280;6867;50.998;4.250;2023-04-09T06:58:34;102153.78;;;11.09;74.45
13593;BME280;6867;50.998;4.250;2023-04-09T07:01:00;102162.09;;;11.22;74.63
13593;BME280;6867;50.998;4.250;2023-04-09T07:03:28;102146.34;;;11.11;74.04
13593;BME280;6867;50.998;4.250;2023-04-09T07:05:55;102153.78;;;11.32;73.60
13593;BME280;6867;50.998;4.250;2023-04-09T07:08:22;102154.56;;;11.40;73.96
13593;BME280;6867;50.998;4.250;2023-04-09T07:10:50;102147.22;;;11.34;73.61
13593;BME280;6867;50.998;4.250;2023-04-09T07:13:16;102134.78;;;11.33;72.76
13593;BME280;6867;50.998;4.250;2023-04-09T07:15:43;102126.72;;;11.33;72.71
13593;BME280;6867;50.998;4.250;2023-04-09T07:18:10;102131.09;;;11.49;72.76
13593;BME280;6867;50.998;4.250;2023-04-09T07:20:37;102125.63;;;11.42;72.51
13593;BME280;6867;50.998;4.250;2023-04-09T07:23:03;102112.13;;;11.51;72.10
13593;BME280;6867;50.998;4.250;2023-04-09T07:25:30;102120.63;;;11.77;71.83
13593;BME280;6867;50.998;4.250;2023-04-09T07:27:58;102103.81;;;11.75;70.94
13593;BME280;6867;50.998;4.250;2023-04-09T07:30:25;102106.56;;;11.90;70.98
13593;BME280;6867;50.998;4.250;2023-04-09T07:32:51;102097.19;;;12.01;70.40
13593;BME280;6867;50.998;4.250;2023-04-09T07:35:18;102096.72;;;12.27;69.97
13593;BME280;6867;50.998;4.250;2023-04-09T07:37:45;102092.28;;;12.19;69.63
13593;BME280;6867;50.998;4.250;2023-04-09T07:40:12;102092.53;;;12.39;69.54
13593;BME280;6867;50.998;4.250;2023-04-09T07:42:39;102086.41;;;12.30;69.13
13593;BME280;6867;50.998;4.250;2023-04-09T07:45:08;102084.09;;;12.27;68.77
13593;BME280;6867;50.998;4.250;2023-04-09T07:47:36;102081.72;;;12.54;68.51
13593;BME280;6867;50.998;4.250;2023-04-09T07:50:04;102082.34;;;12.70;68.11
13593;BME280;6867;50.998;4.250;2023-04-09T07:52:30;102080.50;;;12.71;67.80
13593;BME280;6867;50.998;4.250;2023-04-09T07:54:57;102089.69;;;12.77;67.97
13593;BME280;6867;50.998;4.250;2023-04-09T07:57:24;102097.00;;;12.83;68.16
13593;BME280;6867;50.998;4.250;2023-04-09T07:59:52;102071.63;;;12.92;67.17
13593;BME280;6867;50.998;4.250;2023-04-09T08:02:21;102054.19;;;12.94;66.78
13593;BME280;6867;50.998;4.250;2023-04-09T08:04:48;102047.50;;;12.69;66.36
13593;BME280;6867;50.998;4.250;2023-04-09T08:07:14;102035.53;;;12.93;65.83
13593;BME280;6867;50.998;4.250;2023-04-09T08:09:41;102048.53;;;13.11;65.57
13593;BME280;6867;50.998;4.250;2023-04-09T08:12:08;102048.75;;;13.31;65.16
13593;BME280;6867;50.998;4.250;2023-04-09T08:14:35;102037.13;;;13.30;64.77
13593;BME280;6867;50.998;4.250;2023-04-09T08:17:02;102022.16;;;13.28;64.04
13593;BME280;6867;50.998;4.250;2023-04-09T08:19:30;102009.91;;;13.53;63.49
13593;BME280;6867;50.998;4.250;2023-04-09T08:21:56;102011.84;;;13.66;63.25
13593;BME280;6867;50.998;4.250;2023-04-09T08:24:23;102007.94;;;13.68;63.14
13593;BME280;6867;50.998;4.250;2023-04-09T08:26:50;101993.38;;;13.63;62.40
13593;BME280;6867;50.998;4.250;2023-04-09T08:29:16;101984.28;;;13.77;62.14
13593;BME280;6867;50.998;4.250;2023-04-09T08:31:43;102004.31;;;13.89;62.40
13593;BME280;6867;50.998;4.250;2023-04-09T08:34:10;102024.94;;;13.97;62.34
13593;BME280;6867;50.998;4.250;2023-04-09T08:36:38;101999.03;;;14.16;61.83
13593;BME280;6867;50.998;4.250;2023-04-09T08:39:05;102017.31;;;14.14;62.02
13593;BME280;6867;50.998;4.250;2023-04-09T08:41:33;101983.47;;;14.18;61.37
13593;BME280;6867;50.998;4.250;2023-04-09T08:44:00;101994.88;;;14.20;61.51
13593;BME280;6867;50.998;4.250;2023-04-09T08:46:27;102001.78;;;14.29;61.18
13593;BME280;6867;50.998;4.250;2023-04-09T08:48:54;101978.53;;;14.35;60.34
13593;BME280;6867;50.998;4.250;2023-04-09T08:51:22;101980.00;;;14.44;60.14
13593;BME280;6867;50.998;4.250;2023-04-09T08:53:56;101982.56;;;14.52;59.93
13593;BME280;6867;50.998;4.250;2023-04-09T08:56:23;101990.44;;;14.54;60.53
13593;BME280;6867;50.998;4.250;2023-04-09T08:58:50;101952.63;;;14.67;59.37
13593;BME280;6867;50.998;4.250;2023-04-09T09:01:18;101943.47;;;14.75;59.01
13593;BME280;6867;50.998;4.250;2023-04-09T09:03:54;101975.31;;;14.59;59.59
13593;BME280;6867;50.998;4.250;2023-04-09T09:06:22;101974.06;;;14.75;59.62
13593;BME280;6867;50.998;4.250;2023-04-09T09:09:01;101986.16;;;15.06;59.83
13593;BME280;6867;50.998;4.250;2023-04-09T09:11:29;101967.84;;;14.94;59.04
13593;BME280;6867;50.998;4.250;2023-04-09T09:14:00;101970.16;;;14.98;59.59
13593;BME280;6867;50.998;4.250;2023-04-09T09:16:27;101946.63;;;15.11;58.68
13593;BME280;6867;50.998;4.250;2023-04-09T09:18:54;101938.06;;;15.21;57.90
13593;BME280;6867;50.998;4.250;2023-04-09T09:21:21;101961.81;;;15.19;58.38
13593;BME280;6867;50.998;4.250;2023-04-09T09:23:48;101973.47;;;15.06;59.00
13593;BME280;6867;50.998;4.250;2023-04-09T09:26:19;101964.72;;;15.24;58.41
13593;BME280;6867;50.998;4.250;2023-04-09T09:28:47;101981.16;;;15.29;58.88
13593;BME280;6867;50.998;4.250;2023-04-09T09:31:14;101993.44;;;15.52;58.58
13593;BME280;6867;50.998;4.250;2023-04-09T09:33:42;101940.13;;;15.39;57.84
13593;BME280;6867;50.998;4.250;2023-04-09T09:36:08;101931.59;;;15.29;57.61
13593;BME280;6867;50.998;4.250;2023-04-09T09:38:50;101893.41;;;15.70;55.94
13593;BME280;6867;50.998;4.250;2023-04-09T09:41:19;101882.34;;;15.72;55.62
13593;BME280;6867;50.998;4.250;2023-04-09T09:43:46;101868.81;;;15.72;55.34
13593;BME280;6867;50.998;4.250;2023-04-09T09:46:14;101905.50;;;15.61;56.21
13593;BME280;6867;50.998;4.250;2023-04-09T09:48:41;101852.75;;;15.77;55.09
13593;BME280;6867;50.998;4.250;2023-04-09T09:51:09;101910.06;;;15.80;56.40
13593;BME280;6867;50.998;4.250;2023-04-09T09:53:36;101912.69;;;15.93;56.00
13593;BME280;6867;50.998;4.250;2023-04-09T09:56:04;101936.63;;;16.03;56.47
13593;BME280;6867;50.998;4.250;2023-04-09T09:58:36;101880.53;;;16.04;55.51
13593;BME280;6867;50.998;4.250;2023-04-09T10:01:07;101853.34;;;16.17;54.34
13593;BME280;6867;50.998;4.250;2023-04-09T10:03:35;101865.94;;;16.36;54.50
13593;BME280;6867;50.998;4.250;2023-04-09T10:06:04;101868.72;;;16.55;54.61
13593;BME280;6867;50.998;4.250;2023-04-09T10:08:32;101836.38;;;15.97;54.32
13593;BME280;6867;50.998;4.250;2023-04-09T10:11:00;101907.06;;;15.95;56.01
13593;BME280;6867;50.998;4.250;2023-04-09T10:13:30;101896.84;;;16.35;55.67
13593;BME280;6867;50.998;4.250;2023-04-09T10:16:01;101861.22;;;16.57;54.10
13593;BME280;6867;50.998;4.250;2023-04-09T10:18:28;101850.53;;;16.87;53.89
13593;BME280;6867;50.998;4.250;2023-04-09T10:20:58;101842.63;;;16.85;53.68
13593;BME280;6867;50.998;4.250;2023-04-09T10:23:33;101803.72;;;16.91;53.01
13593;BME280;6867;50.998;4.250;2023-04-09T10:26:01;101795.81;;;16.90;52.53
13593;BME280;6867;50.998;4.250;2023-04-09T10:28:29;101775.66;;;16.79;52.41
13593;BME280;6867;50.998;4.250;2023-04-09T10:30:56;101806.44;;;16.73;52.91
13593;BME280;6867;50.998;4.250;2023-04-09T10:33:25;101850.47;;;16.93;53.69
13593;BME280;6867;50.998;4.250;2023-04-09T10:35:53;101812.13;;;17.27;52.77
13593;BME280;6867;50.998;4.250;2023-04-09T10:38:38;101749.06;;;17.55;50.68
13593;BME280;6867;50.998;4.250;2023-04-09T10:41:08;101786.47;;;17.71;51.33
13593;BME280;6867;50.998;4.250;2023-04-09T10:43:37;101794.78;;;17.28;51.89
13593;BME280;6867;50.998;4.250;2023-04-09T10:46:06;101824.13;;;17.67;52.23
13593;BME280;6867;50.998;4.250;2023-04-09T10:48:34;101802.53;;;17.91;51.53
13593;BME280;6867;50.998;4.250;2023-04-09T10:51:02;101749.66;;;17.75;50.45
13593;BME280;6867;50.998;4.250;2023-04-09T10:53:31;101722.41;;;17.94;49.57
13593;BME280;6867;50.998;4.250;2023-04-09T10:55:58;101805.63;;;17.95;51.29
13593;BME280;6867;50.998;4.250;2023-04-09T10:58:25;101764.44;;;17.79;51.00
13593;BME280;6867;50.998;4.250;2023-04-09T11:00:52;101732.81;;;17.97;50.15
13593;BME280;6867;50.998;4.250;2023-04-09T11:03:24;101719.00;;;18.10;49.23
13593;BME280;6867;50.998;4.250;2023-04-09T11:05:56;101738.72;;;17.94;50.30
13593;BME280;6867;50.998;4.250;2023-04-09T11:08:27;101736.66;;;18.19;49.84
13593;BME280;6867;50.998;4.250;2023-04-09T11:10:54;101651.25;;;17.97;48.27
13593;BME280;6867;50.998;4.250;2023-04-09T11:13:23;101651.28;;;18.44;47.51
13593;BME280;6867;50.998;4.250;2023-04-09T11:15:50;101659.16;;;18.57;47.50
13593;BME280;6867;50.998;4.250;2023-04-09T11:18:21;101719.16;;;18.27;48.97
13593;BME280;6867;50.998;4.250;2023-04-09T11:20:54;101725.63;;;18.14;49.43
13593;BME280;6867;50.998;4.250;2023-04-09T11:23:22;101653.94;;;18.67;47.26
13593;BME280;6867;50.998;4.250;2023-04-09T11:25:50;101697.59;;;18.72;48.08
13593;BME280;6867;50.998;4.250;2023-04-09T11:28:18;101684.53;;;18.98;47.62
13593;BME280;6867;50.998;4.250;2023-04-09T11:30:45;101650.81;;;18.99;46.65
13593;BME280;6867;50.998;4.250;2023-04-09T11:33:12;101608.53;;;18.96;45.78
13593;BME280;6867;50.998;4.250;2023-04-09T11:35:39;101554.19;;;18.73;45.10
13593;BME280;6867;50.998;4.250;2023-04-09T11:38:07;101566.16;;;19.00;45.04
13593;BME280;6867;50.998;4.250;2023-04-09T11:40:35;101549.91;;;19.05;44.48
13593;BME280;6867;50.998;4.250;2023-04-09T11:43:07;101618.09;;;19.10;45.55
13593;BME280;6867;50.998;4.250;2023-04-09T11:45:34;101698.06;;;19.50;46.80
13593;BME280;6867;50.998;4.250;2023-04-09T11:48:01;101651.22;;;19.36;46.39
13593;BME280;6867;50.998;4.250;2023-04-09T11:50:28;101627.53;;;19.36;45.91
13593;BME280;6867;50.998;4.250;2023-04-09T11:52:56;101592.22;;;19.41;44.61
13593;BME280;6867;50.998;4.250;2023-04-09T11:55:26;101642.00;;;19.54;45.40
13593;BME280;6867;50.998;4.250;2023-04-09T11:57:56;101651.75;;;19.50;45.63
13593;BME280;6867;50.998;4.250;2023-04-09T12:00:25;101692.69;;;19.55;46.51
13593;BME280;6867;50.998;4.250;2023-04-09T12:02:59;101655.78;;;19.19;46.46
13593;BME280;6867;50.998;4.250;2023-04-09T12:05:28;101602.75;;;19.38;45.04
13593;BME280;6867;50.998;4.250;2023-04-09T12:07:57;101565.72;;;19.54;43.75
13593;BME280;6867;50.998;4.250;2023-04-09T12:10:27;101572.75;;;19.67;43.92
13593;BME280;6867;50.998;4.250;2023-04-09T12:13:00;101662.81;;;19.60;45.90
13593;BME280;6867;50.998;4.250;2023-04-09T12:15:30;101601.63;;;19.84;44.23
13593;BME280;6867;50.998;4.250;2023-04-09T12:17:57;101661.06;;;19.99;45.42
13593;BME280;6867;50.998;4.250;2023-04-09T12:20:29;101599.56;;;20.30;43.46
13593;BME280;6867;50.998;4.250;2023-04-09T12:22:56;101550.03;;;20.38;42.31
13593;BME280;6867;50.998;4.250;2023-04-09T12:25:24;101615.88;;;20.25;43.94
13593;BME280;6867;50.998;4.250;2023-04-09T12:27:53;101555.03;;;20.25;43.15
13593;BME280;6867;50.998;4.250;2023-04-09T12:30:20;101572.66;;;20.17;43.37
13593;BME280;6867;50.998;4.250;2023-04-09T12:32:47;101565.50;;;20.77;42.28
13593;BME280;6867;50.998;4.250;2023-04-09T12:35:14;101606.00;;;19.85;44.04
13593;BME280;6867;50.998;4.250;2023-04-09T12:37:41;101597.03;;;20.24;43.54
13593;BME280;6867;50.998;4.250;2023-04-09T12:40:09;101562.25;;;20.53;42.53
13593;BME280;6867;50.998;4.250;2023-04-09T12:42:38;101578.38;;;20.81;42.52
13593;BME280;6867;50.998;4.250;2023-04-09T12:45:07;101542.06;;;20.81;42.01
13593;BME280;6867;50.998;4.250;2023-04-09T12:47:34;101456.88;;;20.79;40.28
13593;BME280;6867;50.998;4.250;2023-04-09T12:50:01;101551.06;;;20.54;42.40
13593;BME280;6867;50.998;4.250;2023-04-09T12:52:28;101596.53;;;20.93;42.45
13593;BME280;6867;50.998;4.250;2023-04-09T12:54:55;101609.31;;;20.87;43.22
13593;BME280;6867;50.998;4.250;2023-04-09T12:57:22;101543.56;;;21.53;41.27
13593;BME280;6867;50.998;4.250;2023-04-09T12:59:48;101496.28;;;21.20;40.62
13593;BME280;6867;50.998;4.250;2023-04-09T13:02:16;101523.38;;;21.59;40.73
13593;BME280;6867;50.998;4.250;2023-04-09T13:04:43;101578.50;;;20.92;42.70
13593;BME280;6867;50.998;4.250;2023-04-09T13:07:10;101514.53;;;21.47;40.49